Time;durP1;ratioP1;P1;durP2;ratioP2;P2;SDS_P1;SDS_P2;PMS_P1;PMS_P2;Temp;Humidity;BMP_temperature;BMP_pressure;BME280_temperature;BME280_humidity;BME280_pressure;Samples;Min_cycle;Max_cycle;Signal;HPM_P1;HPM_P2
2023/11/19 00:00:11;;;;;;;1.17;0.70;;;;;;;7.18;99.11;100235.81;7394199;19;20376;-62
2023/11/19 00:02:40;;;;;;;1.20;0.77;;;;;;;7.19;99.18;100226.94;7394001;19;20357;-62
2023/11/19 00:05:08;;;;;;;1.53;0.70;;;;;;;7.22;99.29;100225.78;7396013;19;20372;-62
2023/11/19 00:07:36;;;;;;;1.40;0.68;;;;;;;7.28;99.21;100211.94;7395164;19;20871;-62
2023/11/19 00:10:07;;;;;;;1.52;0.70;;;;;;;7.30;99.04;100207.31;7395593;19;20369;-58
2023/11/19 00:12:34;;;;;;;2.35;0.75;;;;;;;7.37;99.01;100207.47;7396140;19;20431;-62
2023/11/19 00:15:01;;;;;;;1.42;0.73;;;;;;;7.36;99.01;100201.38;7396318;19;20381;-62
2023/11/19 00:17:28;;;;;;;1.10;0.60;;;;;;;7.39;99.05;100190.47;7395385;19;20909;-62
2023/11/19 00:19:55;;;;;;;1.85;0.70;;;;;;;7.41;99.13;100187.69;7394303;19;20360;-62
2023/11/19 00:22:22;;;;;;;1.15;0.60;;;;;;;7.44;99.43;100174.13;7392496;19;20354;-62
2023/11/19 00:24:49;;;;;;;0.93;0.50;;;;;;;7.48;99.14;100160.47;7394226;19;20428;-62
2023/11/19 00:27:17;;;;;;;1.52;0.63;;;;;;;7.54;99.52;100137.84;7394491;19;20360;-63
2023/11/19 00:29:44;;;;;;;1.17;0.60;;;;;;;7.51;99.62;100152.19;7394019;19;20739;-63
2023/11/19 00:32:11;;;;;;;1.00;0.60;;;;;;;7.53;99.74;100149.41;7394259;19;20360;-63
2023/11/19 00:34:38;;;;;;;1.10;0.70;;;;;;;7.56;99.92;100141.13;7392220;19;20332;-63
2023/11/19 00:37:06;;;;;;;1.38;0.60;;;;;;;7.55;100.00;100131.59;7394976;19;20364;-63
2023/11/19 00:39:33;;;;;;;3.25;0.60;;;;;;;7.62;100.00;100132.53;7392618;19;20368;-62
2023/11/19 00:42:00;;;;;;;1.50;0.60;;;;;;;7.59;100.00;100150.53;7395427;19;20381;-63
2023/11/19 00:44:27;;;;;;;1.25;0.70;;;;;;;7.61;100.00;100140.63;7389790;19;20360;-64
2023/11/19 00:46:54;;;;;;;1.00;0.70;;;;;;;7.64;100.00;100119.19;7393094;19;20372;-63
2023/11/19 00:49:21;;;;;;;1.97;0.80;;;;;;;7.65;100.00;100121.66;7391575;19;20416;-64
2023/11/19 00:51:47;;;;;;;1.52;0.80;;;;;;;7.62;100.00;100129.09;7392620;19;20337;-66
2023/11/19 00:54:16;;;;;;;1.90;0.83;;;;;;;7.61;100.00;100120.34;7392394;19;20376;-66
2023/11/19 00:56:42;;;;;;;1.80;0.88;;;;;;;7.61;100.00;100109.78;7391334;19;20376;-66
2023/11/19 00:59:09;;;;;;;1.85;0.80;;;;;;;7.59;100.00;100110.94;7392355;19;20363;-67
2023/11/19 01:01:36;;;;;;;2.05;1.10;;;;;;;7.55;100.00;100100.72;7392098;19;20352;-66
2023/11/19 01:04:03;;;;;;;1.95;1.10;;;;;;;7.53;100.00;100113.28;7390909;19;20466;-66
2023/11/19 01:06:31;;;;;;;1.92;1.20;;;;;;;7.53;100.00;100096.63;7391914;19;21307;-66
2023/11/19 01:09:02;;;;;;;2.28;1.38;;;;;;;7.57;100.00;100095.28;7389604;19;20432;-66
2023/11/19 01:11:29;;;;;;;2.10;1.50;;;;;;;7.53;100.00;100086.88;7393708;19;20380;-67
2023/11/19 01:13:55;;;;;;;2.33;1.60;;;;;;;7.51;100.00;100077.50;7391080;19;20332;-67
2023/11/19 01:16:22;;;;;;;2.13;1.60;;;;;;;7.54;100.00;100061.31;7390902;19;20390;-67
2023/11/19 01:18:49;;;;;;;2.10;1.50;;;;;;;7.54;100.00;100056.88;7392884;19;20361;-67
2023/11/19 01:21:17;;;;;;;2.58;1.90;;;;;;;7.54;100.00;100056.88;7392460;19;20671;-66
2023/11/19 01:23:43;;;;;;;2.60;2.00;;;;;;;7.58;100.00;100056.50;7391858;19;20365;-67
2023/11/19 01:26:12;;;;;;;2.30;1.65;;;;;;;7.60;100.00;100046.59;7391071;19;20382;-66
2023/11/19 01:28:44;;;;;;;3.22;2.20;;;;;;;7.61;100.00;100046.44;7391124;19;20365;-66
2023/11/19 01:31:17;;;;;;;2.15;1.95;;;;;;;7.66;100.00;100052.03;7392552;19;20375;-67
2023/11/19 01:33:44;;;;;;;2.13;1.90;;;;;;;7.66;100.00;100049.38;7390594;19;20412;-66
2023/11/19 01:36:13;;;;;;;2.10;1.90;;;;;;;7.70;100.00;100050.69;7391619;19;20351;-67
2023/11/19 01:38:41;;;;;;;2.30;2.00;;;;;;;7.71;100.00;100047.06;7390760;19;20380;-66
2023/11/19 01:41:08;;;;;;;2.50;1.90;;;;;;;7.72;100.00;100046.06;7390208;19;20675;-66
2023/11/19 01:43:36;;;;;;;2.78;2.08;;;;;;;7.73;100.00;100039.75;7386485;19;20367;-66
2023/11/19 01:46:05;;;;;;;2.90;2.23;;;;;;;7.80;100.00;100025.88;7393685;19;20397;-66
2023/11/19 01:48:34;;;;;;;2.40;2.10;;;;;;;7.83;100.00;100022.91;7389166;19;20365;-66
2023/11/19 01:51:03;;;;;;;2.75;1.92;;;;;;;7.84;100.00;100035.09;7390626;19;20902;-66
2023/11/19 01:53:31;;;;;;;2.00;1.80;;;;;;;7.84;100.00;100027.19;7391323;19;20361;-66
2023/11/19 01:55:59;;;;;;;2.30;1.80;;;;;;;7.87;100.00;100022.38;7390954;19;20960;-66
2023/11/19 01:58:26;;;;;;;2.47;2.10;;;;;;;7.89;100.00;100022.22;7390403;19;20348;-66
2023/11/19 02:00:53;;;;;;;2.25;1.92;;;;;;;7.89;100.00;100016.94;7382362;19;20376;-67
2023/11/19 02:03:21;;;;;;;2.50;2.20;;;;;;;7.89;100.00;100009.00;7383776;19;20352;-66
2023/11/19 02:05:50;;;;;;;2.38;2.00;;;;;;;7.94;100.00;99994.25;7387939;19;20428;-66
2023/11/19 02:08:17;;;;;;;3.05;2.00;;;;;;;7.96;100.00;99996.75;7388583;19;20400;-67
2023/11/19 02:10:44;;;;;;;2.47;2.00;;;;;;;7.99;100.00;99985.00;7384068;19;20521;-67
2023/11/19 02:13:13;;;;;;;2.42;2.00;;;;;;;7.94;100.00;99999.53;7391638;19;20435;-67
2023/11/19 02:15:43;;;;;;;2.58;1.92;;;;;;;7.96;100.00;99999.38;7390309;19;20344;-67
2023/11/19 02:18:27;;;;;;;2.58;1.90;;;;;;;7.97;100.00;99977.28;7389087;19;20439;-67
2023/11/19 02:20:55;;;;;;;2.40;2.10;;;;;;;7.99;100.00;99977.91;7389161;19;20430;-67
2023/11/19 02:23:24;;;;;;;2.50;1.80;;;;;;;7.98;100.00;99976.25;7389159;19;20757;-67
2023/11/19 02:26:18;;;;;;;2.40;1.90;;;;;;;7.99;100.00;99974.44;7389961;19;20713;-67
2023/11/19 02:28:45;;;;;;;2.20;1.70;;;;;;;8.00;100.00;99965.53;7387143;19;20436;-71
2023/11/19 02:31:12;;;;;;;2.00;1.75;;;;;;;8.03;100.00;99955.41;7390762;19;20417;-71
2023/11/19 02:33:39;;;;;;;2.10;1.90;;;;;;;8.02;100.00;99956.44;7389068;19;20500;-71
2023/11/19 02:36:07;;;;;;;4.10;1.83;;;;;;;8.03;100.00;99971.25;7389567;19;20412;-71
2023/11/19 02:38:35;;;;;;;2.40;1.60;;;;;;;8.06;100.00;99949.78;7390797;19;20368;-70
2023/11/19 02:41:07;;;;;;;2.93;1.50;;;;;;;8.05;100.00;99958.69;7391062;19;20352;-69
2023/11/19 02:43:34;;;;;;;2.00;1.33;;;;;;;8.11;100.00;99941.34;7388568;19;20463;-69
2023/11/19 02:46:03;;;;;;;1.80;1.25;;;;;;;8.11;100.00;99963.28;7388736;19;20385;-69
2023/11/19 02:48:43;;;;;;;1.55;1.13;;;;;;;8.17;100.00;99922.13;7387506;19;20401;-69
2023/11/19 02:51:10;;;;;;;1.70;0.90;;;;;;;8.21;100.00;99931.34;7389661;19;20365;-69
2023/11/19 02:53:37;;;;;;;1.90;0.98;;;;;;;8.27;100.00;99922.72;7390901;19;20857;-69
2023/11/19 02:56:19;;;;;;;1.17;0.88;;;;;;;8.27;100.00;99925.34;7388923;19;20361;-69
2023/11/19 02:58:47;;;;;;;1.77;0.90;;;;;;;8.30;100.00;99908.31;7391527;19;20423;-69
2023/11/19 03:01:23;;;;;;;2.03;0.90;;;;;;;8.29;100.00;99907.50;7395941;19;20349;-68
2023/11/19 03:03:56;;;;;;;1.65;1.00;;;;;;;8.30;100.00;99882.69;7393165;19;20415;-68
2023/11/19 03:06:24;;;;;;;2.50;1.07;;;;;;;8.36;100.00;99904.97;7397038;19;20422;-68
2023/11/19 03:08:51;;;;;;;1.90;1.00;;;;;;;8.38;100.00;99897.66;7394469;19;20430;-69
2023/11/19 03:11:18;;;;;;;1.77;1.10;;;;;;;8.41;100.00;99897.31;7392620;19;20365;-69
2023/11/19 03:13:46;;;;;;;1.35;1.00;;;;;;;8.45;100.00;99890.69;7394226;19;20666;-69
2023/11/19 03:16:13;;;;;;;1.52;0.90;;;;;;;8.49;100.00;99878.75;7398002;19;20404;-69
2023/11/19 03:18:40;;;;;;;1.60;1.10;;;;;;;8.49;100.00;99870.00;7394022;19;20485;-68
2023/11/19 03:21:10;;;;;;;1.80;1.00;;;;;;;8.51;100.00;99868.81;7396701;19;20385;-69
2023/11/19 03:23:37;;;;;;;1.35;0.80;;;;;;;8.54;100.00;99873.75;7396420;19;20480;-67
2023/11/19 03:26:05;;;;;;;2.05;1.08;;;;;;;8.57;100.00;99883.94;7396203;19;20388;-67
2023/11/19 03:28:32;;;;;;;1.60;1.00;;;;;;;8.59;100.00;99877.69;7392109;19;20382;-68
2023/11/19 03:31:00;;;;;;;2.28;0.98;;;;;;;8.62;100.00;99872.00;7389464;19;20401;-68
2023/11/19 03:33:27;;;;;;;1.52;0.77;;;;;;;8.68;100.00;99869.44;7393769;19;20353;-68
2023/11/19 03:35:56;;;;;;;1.50;0.80;;;;;;;8.70;100.00;99867.44;7393697;19;20896;-68
2023/11/19 03:38:24;;;;;;;2.95;0.90;;;;;;;8.70;100.00;99875.38;7396127;19;20883;-68
2023/11/19 03:40:51;;;;;;;1.20;0.88;;;;;;;8.76;100.00;99872.00;7396014;19;20731;-67
2023/11/19 03:43:21;;;;;;;1.45;1.00;;;;;;;8.79;100.00;99860.25;7395042;19;20376;-68
2023/11/19 03:45:48;;;;;;;1.80;0.80;;;;;;;8.84;100.00;99868.47;7396219;19;20382;-67
2023/11/19 03:48:18;;;;;;;2.08;0.90;;;;;;;8.86;100.00;99874.38;7394046;19;20365;-67
2023/11/19 03:50:45;;;;;;;1.95;1.02;;;;;;;8.87;100.00;99873.38;7392814;19;20428;-67
2023/11/19 03:53:13;;;;;;;1.83;0.90;;;;;;;8.93;100.00;99871.81;7396821;19;20352;-67
2023/11/19 03:55:40;;;;;;;1.90;0.90;;;;;;;8.96;100.00;99869.59;7393997;19;20367;-67
2023/11/19 03:58:07;;;;;;;3.13;1.03;;;;;;;9.02;100.00;99864.59;7388710;19;21357;-67
2023/11/19 04:00:34;;;;;;;1.55;0.95;;;;;;;9.04;100.00;99844.88;7395440;19;20952;-67
2023/11/19 04:03:01;;;;;;;1.42;1.00;;;;;;;9.04;100.00;99847.53;7393194;19;20732;-68
2023/11/19 04:05:28;;;;;;;1.52;1.00;;;;;;;9.10;100.00;99843.34;7393994;19;20845;-67
2023/11/19 04:07:54;;;;;;;1.63;1.00;;;;;;;9.14;100.00;99836.66;7396432;19;20695;-67
2023/11/19 04:10:22;;;;;;;1.40;1.00;;;;;;;9.15;100.00;99838.28;7394261;19;20820;-67
2023/11/19 04:12:49;;;;;;;1.58;1.13;;;;;;;9.16;100.00;99837.28;7394248;19;20393;-67
2023/11/19 04:15:16;;;;;;;1.73;1.20;;;;;;;9.16;100.00;99834.66;7394167;19;20368;-66
2023/11/19 04:17:43;;;;;;;1.50;1.10;;;;;;;9.19;100.00;99832.44;7396463;19;20361;-67
2023/11/19 04:20:14;;;;;;;2.17;1.33;;;;;;;9.24;100.00;99831.06;7392529;19;20385;-66
2023/11/19 04:22:41;;;;;;;1.77;1.20;;;;;;;9.24;100.00;99837.16;7395977;19;20466;-67
2023/11/19 04:25:09;;;;;;;2.50;1.40;;;;;;;9.25;100.00;99840.66;7395442;19;20922;-66
2023/11/19 04:27:36;;;;;;;2.08;1.40;;;;;;;9.29;100.00;99840.06;7394383;19;20365;-66
2023/11/19 04:30:05;;;;;;;2.42;1.40;;;;;;;9.32;100.00;99844.16;7393261;19;20357;-65
2023/11/19 04:32:32;;;;;;;1.95;1.45;;;;;;;9.33;100.00;99844.00;7394384;19;20377;-66
2023/11/19 04:34:59;;;;;;;2.28;1.58;;;;;;;9.37;100.00;99832.03;7391577;19;20369;-66
2023/11/19 04:37:25;;;;;;;3.10;1.60;;;;;;;9.40;100.00;99844.06;7395389;19;20376;-66
2023/11/19 04:39:52;;;;;;;2.60;2.08;;;;;;;9.44;100.00;99841.88;7395799;19;20364;-66
2023/11/19 04:42:22;;;;;;;3.35;1.98;;;;;;;9.50;100.00;99835.78;7394035;19;20381;-66
2023/11/19 04:44:49;;;;;;;3.60;2.40;;;;;;;9.54;100.00;99837.88;7394539;19;20396;-66
2023/11/19 04:47:16;;;;;;;3.85;2.35;;;;;;;9.60;100.00;99836.28;7391452;19;20386;-66
2023/11/19 04:49:43;;;;;;;4.40;2.50;;;;;;;9.65;100.00;99833.91;7392168;19;20852;-67
2023/11/19 04:52:11;;;;;;;3.30;2.50;;;;;;;9.69;100.00;99832.53;7393137;19;20385;-66
2023/11/19 04:54:45;;;;;;;3.78;2.83;;;;;;;9.76;100.00;99836.03;7395160;19;20711;-66
2023/11/19 04:57:12;;;;;;;3.63;2.90;;;;;;;9.80;100.00;99839.94;7394259;19;20440;-65
2023/11/19 04:59:39;;;;;;;4.72;3.13;;;;;;;9.86;100.00;99834.88;7394932;19;20381;-66
2023/11/19 05:02:07;;;;;;;5.33;4.20;;;;;;;9.91;100.00;99838.63;7392449;19;20401;-66
2023/11/19 05:04:34;;;;;;;5.70;4.10;;;;;;;9.99;100.00;99846.44;7394192;19;20353;-66
2023/11/19 05:07:02;;;;;;;6.60;4.80;;;;;;;10.03;100.00;99825.66;7392343;19;20357;-65
2023/11/19 05:09:30;;;;;;;6.55;5.13;;;;;;;10.07;100.00;99826.91;7393911;19;20373;-66
2023/11/19 05:11:57;;;;;;;6.55;5.00;;;;;;;10.11;100.00;99825.50;7393203;19;20387;-66
2023/11/19 05:14:24;;;;;;;7.13;4.55;;;;;;;10.15;100.00;99810.03;7390851;19;20369;-65
2023/11/19 05:16:51;;;;;;;7.28;5.13;;;;;;;10.18;100.00;99810.47;7393682;19;20755;-66
2023/11/19 05:19:18;;;;;;;8.68;5.63;;;;;;;10.24;100.00;99797.44;7393246;19;20389;-65
2023/11/19 05:21:45;;;;;;;8.63;6.13;;;;;;;10.27;100.00;99799.72;7391103;19;20689;-65
2023/11/19 05:24:12;;;;;;;9.90;5.95;;;;;;;10.31;100.00;99796.53;7394252;19;20367;-65
2023/11/19 05:26:39;;;;;;;8.43;5.60;;;;;;;10.41;100.00;99793.50;7388681;19;20352;-65
2023/11/19 05:29:06;;;;;;;9.85;5.63;;;;;;;10.45;100.00;99792.09;7391083;19;20377;-65
2023/11/19 05:31:32;;;;;;;7.15;5.40;;;;;;;10.49;100.00;99790.69;7392879;19;20874;-65
2023/11/19 05:34:03;;;;;;;9.02;5.78;;;;;;;10.52;100.00;99802.72;7392854;19;20432;-64
2023/11/19 05:36:31;;;;;;;10.00;5.53;;;;;;;10.56;100.00;99793.38;7391802;19;20860;-65
2023/11/19 05:38:58;;;;;;;8.55;5.93;;;;;;;10.60;100.00;99795.47;7393986;19;20717;-65
2023/11/19 05:41:24;;;;;;;9.32;5.93;;;;;;;10.63;100.00;99799.53;7393585;19;20405;-66
2023/11/19 05:43:51;;;;;;;8.57;5.70;;;;;;;10.66;100.00;99798.31;7394560;19;20344;-65
2023/11/19 05:46:18;;;;;;;6.72;5.90;;;;;;;10.67;100.00;99803.44;7392209;19;20431;-64
2023/11/19 05:48:47;;;;;;;9.75;6.43;;;;;;;10.68;100.00;99806.91;7392102;19;20721;-65
2023/11/19 05:51:17;;;;;;;8.82;6.25;;;;;;;10.69;100.00;99804.06;7390776;19;20372;-65
2023/11/19 05:53:47;;;;;;;10.82;6.18;;;;;;;10.73;100.00;99804.47;7394316;19;20361;-64
2023/11/19 05:56:15;;;;;;;10.48;6.78;;;;;;;10.73;100.00;99799.16;7392062;19;20421;-64
2023/11/19 05:58:44;;;;;;;11.67;7.70;;;;;;;10.75;100.00;99787.34;7391774;19;20368;-67
2023/11/19 06:01:11;;;;;;;10.55;7.53;;;;;;;10.79;100.00;99798.38;7392466;19;20757;-68
2023/11/19 06:03:38;;;;;;;11.55;8.18;;;;;;;10.79;100.00;99801.84;7390536;19;20876;-68
2023/11/19 06:06:06;;;;;;;11.70;8.85;;;;;;;10.81;100.00;99804.28;7393377;19;20396;-67
2023/11/19 06:08:33;;;;;;;14.85;10.02;;;;;;;10.83;100.00;99810.22;7393076;19;20361;-68
2023/11/19 06:11:01;;;;;;;12.13;9.67;;;;;;;10.85;100.00;99792.28;7388891;19;20336;-67
2023/11/19 06:13:30;;;;;;;13.03;9.30;;;;;;;10.89;100.00;99793.50;7391917;19;20435;-67
2023/11/19 06:15:58;;;;;;;14.27;10.57;;;;;;;10.90;100.00;99799.63;7392561;19;20352;-68
2023/11/19 06:18:25;;;;;;;13.52;9.63;;;;;;;10.94;100.00;99798.22;7392389;19;20348;-68
2023/11/19 06:20:52;;;;;;;11.40;9.07;;;;;;;11.02;100.00;99798.03;7393448;19;20360;-68
2023/11/19 06:23:19;;;;;;;13.25;8.70;;;;;;;11.09;100.00;99792.75;7392984;19;20435;-68
2023/11/19 06:25:46;;;;;;;11.47;8.20;;;;;;;11.17;100.00;99797.88;7387422;19;20374;-67
2023/11/19 06:28:13;;;;;;;11.05;7.22;;;;;;;11.21;100.00;99801.78;7386309;19;20481;-67
2023/11/19 06:30:41;;;;;;;11.95;7.25;;;;;;;11.25;100.00;99800.34;7390097;19;20356;-67
2023/11/19 06:33:08;;;;;;;11.05;6.90;;;;;;;11.31;100.00;99799.56;7393907;19;20345;-68
2023/11/19 06:35:38;;;;;;;11.43;7.00;;;;;;;11.34;100.00;99806.28;7398488;19;20895;-66
2023/11/19 06:38:05;;;;;;;10.10;6.80;;;;;;;11.35;100.00;99808.75;7398855;19;20416;-67
2023/11/19 06:40:32;;;;;;;14.55;7.35;;;;;;;11.34;100.00;99817.72;7392840;19;20367;-67
2023/11/19 06:42:59;;;;;;;12.77;6.60;;;;;;;11.37;100.00;99811.22;7395673;19;20360;-67
2023/11/19 06:45:26;;;;;;;11.57;6.32;;;;;;;11.40;100.00;99811.59;7398079;19;20374;-67
2023/11/19 06:47:53;;;;;;;12.07;6.40;;;;;;;11.45;100.00;99812.84;7397032;19;20490;-67
2023/11/19 06:50:20;;;;;;;14.37;6.80;;;;;;;11.51;100.00;99817.34;7396239;19;20348;-66
2023/11/19 06:52:47;;;;;;;12.52;5.85;;;;;;;11.57;100.00;99809.38;7399009;19;20373;-67
2023/11/19 06:55:14;;;;;;;14.95;5.90;;;;;;;11.67;100.00;99816.13;7397637;19;20860;-67
2023/11/19 06:57:41;;;;;;;14.13;5.67;;;;;;;11.76;100.00;99825.53;7397911;19;20363;-66
2023/11/19 07:00:08;;;;;;;12.25;5.78;;;;;;;11.83;100.00;99831.66;7398036;19;20379;-66
2023/11/19 07:02:35;;;;;;;13.00;5.70;;;;;;;11.91;100.00;99825.38;7396868;19;20382;-66
2023/11/19 07:05:04;;;;;;;15.43;5.55;;;;;;;11.98;100.00;99828.84;7397153;19;20332;-66
2023/11/19 07:07:32;;;;;;;14.82;5.13;;;;;;;12.04;100.00;99828.00;7396955;19;20364;-66
2023/11/19 07:09:59;;;;;;;15.27;5.47;;;;;;;12.10;100.00;99835.16;7395278;19;20444;-66
2023/11/19 07:12:26;;;;;;;16.33;4.70;;;;;;;12.12;100.00;99834.97;7396406;19;20364;-68
2023/11/19 07:14:54;;;;;;;14.60;4.93;;;;;;;12.14;100.00;99844.38;7388413;19;20843;-67
2023/11/19 07:17:21;;;;;;;14.57;4.95;;;;;;;12.16;100.00;99847.66;7389881;19;20397;-68
2023/11/19 07:19:49;;;;;;;17.60;4.88;;;;;;;12.15;100.00;99850.50;7395415;19;20667;-68
2023/11/19 07:22:17;;;;;;;18.75;5.30;;;;;;;12.08;100.00;99850.50;7391409;19;20693;-70
2023/11/19 07:24:44;;;;;;;15.30;5.10;;;;;;;12.08;100.00;99858.47;7390319;19;21027;-70
2023/11/19 07:27:10;;;;;;;20.42;5.07;;;;;;;12.06;100.00;99851.75;7393986;19;20373;-69
2023/11/19 07:29:37;;;;;;;18.55;5.35;;;;;;;12.06;100.00;99849.91;7397056;19;20379;-69
2023/11/19 07:32:05;;;;;;;18.02;5.03;;;;;;;12.01;100.00;99860.34;7396811;19;20377;-69
2023/11/19 07:34:32;;;;;;;18.20;4.93;;;;;;;12.03;100.00;99852.97;7395440;19;20340;-68
2023/11/19 07:37:02;;;;;;;16.98;4.57;;;;;;;12.04;100.00;99878.53;7395296;19;20352;-68
2023/11/19 07:39:29;;;;;;;19.27;5.25;;;;;;;12.12;100.00;99878.31;7396066;19;20352;-68
2023/11/19 07:41:56;;;;;;;19.23;4.80;;;;;;;12.15;100.00;99864.59;7393066;19;20851;-69
2023/11/19 07:44:24;;;;;;;15.68;4.68;;;;;;;12.20;99.31;99866.66;7394481;19;20394;-68
2023/11/19 07:46:51;;;;;;;18.15;4.85;;;;;;;12.21;97.86;99855.81;7394607;19;20735;-67
2023/11/19 07:49:18;;;;;;;16.67;4.30;;;;;;;12.28;97.78;99879.72;7394497;19;20381;-68
2023/11/19 07:51:45;;;;;;;19.75;4.93;;;;;;;12.28;96.98;99871.75;7392440;19;20871;-68
2023/11/19 07:54:11;;;;;;;16.08;4.40;;;;;;;12.29;95.81;99885.88;7383637;19;20363;-68
2023/11/19 07:56:38;;;;;;;21.50;5.60;;;;;;;12.35;96.15;99904.50;7385054;19;20349;-67
2023/11/19 07:59:06;;;;;;;18.60;5.05;;;;;;;12.37;95.45;99883.03;7385181;19;20428;-67
2023/11/19 08:01:33;;;;;;;18.48;4.70;;;;;;;12.39;95.43;99873.00;7385963;19;20358;-67
2023/11/19 08:04:01;;;;;;;20.33;5.13;;;;;;;12.41;94.70;99876.22;7382850;19;20376;-67
2023/11/19 08:06:29;;;;;;;14.82;4.32;;;;;;;12.44;94.31;99886.47;7384194;19;20361;-66
2023/11/19 08:08:56;;;;;;;19.23;4.78;;;;;;;12.50;93.53;99880.34;7387437;19;20356;-66
2023/11/19 08:11:23;;;;;;;20.87;4.70;;;;;;;12.52;92.96;99896.91;7391058;19;20979;-65
2023/11/19 08:13:49;;;;;;;21.83;5.22;;;;;;;12.60;93.17;99885.22;7395803;19;20401;-66
2023/11/19 08:16:16;;;;;;;19.63;4.80;;;;;;;12.63;92.54;99898.91;7394889;19;20643;-66
2023/11/19 08:18:43;;;;;;;16.88;4.47;;;;;;;12.70;91.73;99885.59;7394529;19;20919;-66
2023/11/19 08:21:10;;;;;;;21.08;5.70;;;;;;;12.75;91.22;99876.97;7396035;19;20413;-65
2023/11/19 08:23:37;;;;;;;20.33;4.85;;;;;;;12.77;91.39;99891.75;7394329;19;20364;-65
2023/11/19 08:26:05;;;;;;;18.02;4.63;;;;;;;12.74;90.23;99892.13;7389274;19;20367;-65
2023/11/19 08:28:34;;;;;;;17.65;4.97;;;;;;;12.73;89.70;99887.84;7385977;19;20363;-65
2023/11/19 08:31:04;;;;;;;18.88;5.07;;;;;;;12.71;89.37;99887.25;7393524;19;20703;-65
2023/11/19 08:33:32;;;;;;;20.65;5.47;;;;;;;12.67;88.48;99890.53;7390739;19;20349;-65
2023/11/19 08:35:58;;;;;;;18.95;5.20;;;;;;;12.62;88.30;99913.25;7394039;19;20344;-64
2023/11/19 08:38:25;;;;;;;21.75;5.60;;;;;;;12.59;88.20;99895.03;7393915;19;20955;-64
2023/11/19 08:40:59;;;;;;;23.38;5.43;;;;;;;12.58;88.20;99904.06;7392177;19;20381;-64
2023/11/19 08:43:27;;;;;;;20.02;5.25;;;;;;;12.57;87.86;99906.91;7392024;19;20363;-64
2023/11/19 08:45:54;;;;;;;21.73;5.38;;;;;;;12.59;88.36;99905.69;7385512;19;20380;-66
2023/11/19 08:48:21;;;;;;;21.33;5.25;;;;;;;12.58;87.99;99909.38;7393453;19;20349;-65
2023/11/19 08:50:48;;;;;;;18.10;4.80;;;;;;;12.58;87.86;99897.91;7393049;19;20348;-65
2023/11/19 08:53:15;;;;;;;19.75;5.07;;;;;;;12.57;87.86;99905.06;7391092;19;20774;-65
2023/11/19 08:55:42;;;;;;;19.73;5.38;;;;;;;12.56;87.93;99921.22;7391502;19;20352;-65
2023/11/19 08:58:09;;;;;;;20.37;5.33;;;;;;;12.55;86.87;99891.16;7390108;19;20356;-65
2023/11/19 09:00:36;;;;;;;22.35;5.97;;;;;;;12.67;87.25;99882.56;7390733;19;20356;-65
2023/11/19 09:03:03;;;;;;;19.13;5.15;;;;;;;12.69;87.22;99904.44;7391515;19;20703;-65
2023/11/19 09:05:30;;;;;;;22.65;5.70;;;;;;;12.68;86.81;99905.47;7393420;19;20355;-65
2023/11/19 09:07:57;;;;;;;21.42;5.90;;;;;;;12.70;86.72;99922.84;7393728;19;20876;-65
2023/11/19 09:10:24;;;;;;;21.52;5.70;;;;;;;12.77;86.70;99923.69;7391926;19;20424;-65
2023/11/19 09:12:52;;;;;;;18.48;5.45;;;;;;;12.84;86.13;99952.94;7387427;19;20355;-65
2023/11/19 09:15:22;;;;;;;19.93;4.90;;;;;;;12.91;86.18;99918.31;7390475;19;20372;-65
2023/11/19 09:17:49;;;;;;;21.08;5.38;;;;;;;12.96;85.25;99927.31;7391081;19;20427;-65
2023/11/19 09:20:16;;;;;;;24.75;5.95;;;;;;;12.98;84.99;99946.53;7392486;19;20385;-65
2023/11/19 09:22:43;;;;;;;20.25;5.60;;;;;;;12.98;84.71;99930.56;7393688;19;20431;-65
2023/11/19 09:25:10;;;;;;;16.80;4.68;;;;;;;12.98;84.86;99925.22;7392164;19;20376;-65
2023/11/19 09:27:36;;;;;;;24.00;5.88;;;;;;;12.97;85.09;99931.59;7389202;19;20350;-65
2023/11/19 09:30:04;;;;;;;20.85;5.47;;;;;;;13.00;84.84;99925.84;7390051;19;20484;-65
2023/11/19 09:32:31;;;;;;;16.85;4.50;;;;;;;13.04;84.23;99945.69;7390090;19;20979;-65
2023/11/19 09:34:58;;;;;;;20.33;5.27;;;;;;;13.22;84.27;99941.56;7390315;19;20344;-64
2023/11/19 09:37:25;;;;;;;21.17;5.60;;;;;;;13.31;83.86;99950.97;7392258;19;20365;-64
2023/11/19 09:39:53;;;;;;;21.23;5.90;;;;;;;13.43;84.54;99930.66;7392761;19;20393;-64
2023/11/19 09:42:20;;;;;;;23.10;5.93;;;;;;;13.42;83.76;99946.84;7388377;19;20934;-63
2023/11/19 09:44:48;;;;;;;21.00;5.43;;;;;;;13.39;83.40;99941.94;7389840;19;20872;-63
2023/11/19 09:47:16;;;;;;;20.87;5.83;;;;;;;13.39;83.72;99945.41;7390198;19;20429;-62
2023/11/19 09:49:43;;;;;;;22.08;5.38;;;;;;;13.35;83.08;99965.50;7388494;19;20389;-62
2023/11/19 09:52:11;;;;;;;19.85;5.28;;;;;;;13.38;83.92;99965.06;7388614;19;20373;-61
2023/11/19 09:54:37;;;;;;;18.75;5.03;;;;;;;13.40;83.65;99933.72;7389257;19;20372;-63
2023/11/19 09:57:07;;;;;;;21.67;5.45;;;;;;;13.49;83.53;99944.94;7384493;19;20752;-64
2023/11/19 09:59:34;;;;;;;19.88;5.63;;;;;;;13.56;83.57;99932.41;7391997;19;20373;-63
2023/11/19 10:02:03;;;;;;;21.70;5.65;;;;;;;13.58;82.24;99956.16;7390162;19;20674;-63
2023/11/19 10:04:30;;;;;;;22.00;5.43;;;;;;;13.56;81.83;99932.41;7390043;19;20389;-62
2023/11/19 10:06:57;;;;;;;20.40;5.10;;;;;;;13.64;81.38;99936.66;7390181;19;20759;-63
2023/11/19 10:09:24;;;;;;;17.90;4.60;;;;;;;13.68;81.61;99945.88;7397035;19;20912;-62
2023/11/19 10:11:51;;;;;;;17.13;4.57;;;;;;;13.67;80.86;99938.94;7394823;19;20878;-62
2023/11/19 10:14:23;;;;;;;18.35;4.63;;;;;;;13.65;80.38;99964.97;7395246;19;21639;-62
2023/11/19 10:16:50;;;;;;;18.45;3.85;;;;;;;13.60;80.24;99962.09;7397402;19;20380;-62
2023/11/19 10:19:23;;;;;;;19.17;4.47;;;;;;;13.54;79.53;99923.81;7396161;19;20428;-62
2023/11/19 10:21:49;;;;;;;16.42;4.47;;;;;;;13.50;79.34;99975.09;7398508;19;20349;-62
2023/11/19 10:24:30;;;;;;;17.30;3.90;;;;;;;13.44;79.13;99934.94;7395933;19;20743;-61
2023/11/19 10:26:57;;;;;;;21.13;4.40;;;;;;;13.53;79.92;99937.34;7395627;19;20360;-62
2023/11/19 10:29:24;;;;;;;20.58;4.55;;;;;;;13.56;79.69;99943.09;7395709;19;20385;-62
2023/11/19 10:31:57;;;;;;;15.23;3.50;;;;;;;13.46;78.27;99940.88;7394372;19;20356;-62
2023/11/19 10:34:43;;;;;;;23.50;4.77;;;;;;;13.46;78.95;99932.88;7397323;19;20412;-63
2023/11/19 10:37:28;;;;;;;19.17;4.97;;;;;;;13.42;78.85;99933.50;7396166;19;20748;-62
2023/11/19 10:39:55;;;;;;;18.35;4.30;;;;;;;13.46;79.56;99972.84;7395311;19;20360;-62
2023/11/19 10:42:22;;;;;;;20.42;4.40;;;;;;;13.58;79.37;99940.19;7395765;19;20385;-62
2023/11/19 10:44:49;;;;;;;19.30;4.65;;;;;;;13.70;79.39;99949.16;7395101;19;20708;-62
2023/11/19 10:47:19;;;;;;;19.10;4.57;;;;;;;13.72;78.59;99941.75;7394129;19;20879;-62
2023/11/19 10:49:46;;;;;;;12.75;3.63;;;;;;;13.73;78.06;99935.41;7397277;19;20360;-62
2023/11/19 10:52:17;;;;;;;18.15;5.25;;;;;;;13.76;78.21;99942.97;7394176;19;20872;-61
2023/11/19 10:54:48;;;;;;;16.02;3.97;;;;;;;13.66;77.44;99938.13;7397711;19;20678;-62
2023/11/19 10:57:19;;;;;;;13.82;3.70;;;;;;;13.75;77.68;99930.69;7394397;19;20360;-61
2023/11/19 10:59:47;;;;;;;16.88;4.07;;;;;;;13.85;77.71;99943.53;7396612;19;20527;-62
2023/11/19 11:02:19;;;;;;;19.45;4.40;;;;;;;14.00;77.28;99916.56;7394781;19;20682;-61
2023/11/19 11:04:47;;;;;;;18.20;4.27;;;;;;;14.16;77.52;99937.38;7393687;19;20368;-61
2023/11/19 11:07:15;;;;;;;15.40;4.33;;;;;;;14.26;77.51;99932.38;7397001;19;20433;-61
2023/11/19 11:09:43;;;;;;;19.30;4.03;;;;;;;14.35;77.08;99916.09;7396984;19;20389;-61
2023/11/19 11:12:10;;;;;;;16.75;3.92;;;;;;;14.43;76.17;99915.81;7394504;19;21003;-61
2023/11/19 11:14:40;;;;;;;15.02;4.10;;;;;;;14.51;75.30;99923.50;7396030;19;20760;-61
2023/11/19 11:17:09;;;;;;;14.30;3.95;;;;;;;14.66;75.04;99936.53;7394834;19;20376;-61
2023/11/19 11:19:37;;;;;;;17.55;4.32;;;;;;;14.82;74.87;99937.84;7390809;19;20344;-61
2023/11/19 11:22:05;;;;;;;23.17;4.97;;;;;;;14.89;73.81;99957.25;7397250;19;20385;-62
2023/11/19 11:25:00;;;;;;;18.23;4.93;;;;;;;15.12;73.67;99931.75;7393671;19;20376;-62
2023/11/19 11:27:54;;;;;;;16.90;4.25;;;;;;;15.17;73.03;99921.22;7394518;19;20373;-62
2023/11/19 11:31:04;;;;;;;17.50;4.28;;;;;;;15.36;72.44;99930.81;7392724;19;20880;-62